createdAt,value
2018-05-26T00:00:41.611Z,18.50
2018-05-26T00:03:09.945Z,18.30
2018-05-26T00:05:37.452Z,18.20
2018-05-26T00:08:05.727Z,18.10
2018-05-26T00:10:34.058Z,18.00
2018-05-26T00:13:01.560Z,18.00
2018-05-26T00:15:29.841Z,18.00
2018-05-26T00:17:57.395Z,18.00
2018-05-26T00:20:24.910Z,18.00
2018-05-26T00:22:58.183Z,17.90
2018-05-26T00:25:25.694Z,17.90
2018-05-26T00:27:53.977Z,17.90
2018-05-26T00:30:22.267Z,17.90
2018-05-26T00:32:49.774Z,17.90
2018-05-26T00:35:17.318Z,17.90
2018-05-26T00:37:44.846Z,17.90
2018-05-26T00:40:12.422Z,17.70
2018-05-26T00:42:39.949Z,17.70
2018-05-26T00:45:17.198Z,17.60
2018-05-26T00:47:44.749Z,17.60
2018-05-26T00:50:12.271Z,17.60
2018-05-26T00:52:39.803Z,17.50
2018-05-26T00:55:07.343Z,17.50
2018-05-26T00:57:34.857Z,17.40
2018-05-26T01:00:02.373Z,17.40
2018-05-26T01:02:30.691Z,17.20
2018-05-26T01:04:58.243Z,17.20
2018-05-26T01:07:25.742Z,17.20
2018-05-26T01:09:53.251Z,17.20
2018-05-26T01:12:20.811Z,17.20
2018-05-26T01:14:48.346Z,17.20
2018-05-26T01:17:15.871Z,17.20
2018-05-26T01:19:43.367Z,17.10
2018-05-26T01:22:11.656Z,17.00
2018-05-26T01:24:39.176Z,17.00
2018-05-26T01:27:06.764Z,17.00
2018-05-26T01:29:34.263Z,17.00
2018-05-26T01:32:01.815Z,17.10
2018-05-26T01:34:29.339Z,17.10
2018-05-26T01:36:56.870Z,17.00
2018-05-26T01:39:24.422Z,17.00
2018-05-26T01:41:51.934Z,16.90
2018-05-26T01:44:19.463Z,16.80
2018-05-26T01:46:46.999Z,16.80
2018-05-26T01:49:14.528Z,16.80
2018-05-26T01:51:42.040Z,16.90
2018-05-26T01:54:10.413Z,16.80
2018-05-26T01:56:38.669Z,16.70
2018-05-26T01:59:06.185Z,16.70
2018-05-26T02:01:33.741Z,16.60
2018-05-26T02:04:01.344Z,16.60
2018-05-26T02:06:28.866Z,16.60
2018-05-26T02:08:56.413Z,16.60
2018-05-26T02:11:23.943Z,16.50
2018-05-26T02:14:01.959Z,16.50
2018-05-26T02:16:29.512Z,16.50
2018-05-26T02:18:57.770Z,16.50
2018-05-26T02:21:25.316Z,16.50
2018-05-26T02:23:52.828Z,16.50
2018-05-26T02:26:20.339Z,16.50
2018-05-26T02:28:47.887Z,16.50
2018-05-26T02:31:15.402Z,16.60
2018-05-26T02:33:42.911Z,16.60
2018-05-26T02:36:10.486Z,16.60
2018-05-26T02:38:38.034Z,16.60
2018-05-26T02:41:05.553Z,16.50
2018-05-26T02:43:33.078Z,16.50
2018-05-26T02:46:00.609Z,16.40
2018-05-26T02:48:28.137Z,16.40
2018-05-26T02:50:55.648Z,16.40
2018-05-26T02:53:23.168Z,16.40
2018-05-26T02:55:50.681Z,16.40
2018-05-26T02:58:18.202Z,16.50
2018-05-26T03:00:46.488Z,16.50
2018-05-26T03:03:14.758Z,16.40
2018-05-26T03:05:48.646Z,16.30
2018-05-26T03:08:21.764Z,16.30
2018-05-26T03:10:54.906Z,16.20
2018-05-26T03:13:28.001Z,16.20
2018-05-26T03:16:01.104Z,16.10
2018-05-26T03:18:28.615Z,16.10
2018-05-26T03:20:56.112Z,16.10
2018-05-26T03:23:23.631Z,16.00
2018-05-26T03:25:51.150Z,15.90
2018-05-26T03:28:19.442Z,15.80
2018-05-26T03:30:47.033Z,15.90
2018-05-26T03:33:14.546Z,15.90
2018-05-26T03:35:42.070Z,15.90
2018-05-26T03:38:09.611Z,15.80
2018-05-26T03:40:37.179Z,15.80
2018-05-26T03:43:04.708Z,15.80
2018-05-26T03:45:32.237Z,15.80
2018-05-26T03:48:00.545Z,15.80
2018-05-26T03:50:28.075Z,15.80
2018-05-26T03:52:55.639Z,15.80
2018-05-26T03:55:36.447Z,15.70
2018-05-26T03:58:15.873Z,15.70
2018-05-26T04:00:43.402Z,15.60
2018-05-26T04:03:10.911Z,15.60
2018-05-26T04:05:38.436Z,15.60
2018-05-26T04:08:05.977Z,15.60
2018-05-26T04:10:33.521Z,15.60
2018-05-26T04:13:01.067Z,15.70
2018-05-26T04:15:28.595Z,15.80
2018-05-26T04:17:56.164Z,15.80
2018-05-26T04:20:24.531Z,15.80
2018-05-26T04:22:52.044Z,15.80
2018-05-26T04:25:19.591Z,15.70
2018-05-26T04:27:47.916Z,15.70
2018-05-26T04:30:15.427Z,15.70
2018-05-26T04:32:42.951Z,15.80
2018-05-26T04:35:10.497Z,15.80
2018-05-26T04:37:38.037Z,15.80
2018-05-26T04:40:05.560Z,15.70
2018-05-26T04:42:33.864Z,15.60
2018-05-26T04:45:11.084Z,15.50
2018-05-26T04:47:38.619Z,15.60
2018-05-26T04:50:06.131Z,15.60
2018-05-26T04:52:33.642Z,15.60
2018-05-26T04:55:01.162Z,15.60
2018-05-26T04:57:28.680Z,15.60
2018-05-26T04:59:56.210Z,15.70
2018-05-26T05:02:23.741Z,15.70
2018-05-26T05:04:56.200Z,15.80
2018-05-26T05:07:24.499Z,16.10
2018-05-26T05:09:52.016Z,16.10
2018-05-26T05:12:19.547Z,16.20
2018-05-26T05:14:47.062Z,16.20
2018-05-26T05:17:14.660Z,16.20
2018-05-26T05:19:42.209Z,16.30
2018-05-26T05:22:09.767Z,16.30
2018-05-26T05:24:38.088Z,16.30
2018-05-26T05:27:05.769Z,16.30
2018-05-26T05:29:34.098Z,16.30
2018-05-26T05:32:01.636Z,16.30
2018-05-26T05:34:29.169Z,16.40
2018-05-26T05:36:56.692Z,16.40
2018-05-26T05:39:24.236Z,16.30
2018-05-26T05:41:51.774Z,16.30
2018-05-26T05:44:19.365Z,16.40
2018-05-26T05:46:46.903Z,16.60
2018-05-26T05:49:14.450Z,16.70
2018-05-26T05:51:42.020Z,16.80
2018-05-26T05:54:09.562Z,16.90
2018-05-26T05:56:37.076Z,17.00
2018-05-26T05:59:04.693Z,17.10
2018-05-26T06:01:32.135Z,17.20
2018-05-26T06:03:59.720Z,17.30
2018-05-26T06:06:27.253Z,17.30
2018-05-26T06:08:54.783Z,17.40
2018-05-26T06:11:22.286Z,17.50
2018-05-26T06:13:49.803Z,17.50
2018-05-26T06:16:18.150Z,17.50
2018-05-26T06:18:45.666Z,17.40
2018-05-26T06:21:13.190Z,17.50
2018-05-26T06:23:41.500Z,17.50
2018-05-26T06:26:09.028Z,17.50
2018-05-26T06:28:37.317Z,17.50
2018-05-26T06:31:04.911Z,17.50
2018-05-26T06:33:32.446Z,17.60
2018-05-26T06:35:59.999Z,17.60
2018-05-26T06:38:27.540Z,17.60
2018-05-26T06:40:55.109Z,17.60
2018-05-26T06:43:22.650Z,17.50
2018-05-26T06:45:50.351Z,17.60
2018-05-26T06:48:17.897Z,17.60
2018-05-26T06:50:45.582Z,17.50
2018-05-26T06:53:13.112Z,17.50
2018-05-26T06:55:40.681Z,17.50
2018-05-26T06:58:08.294Z,17.60
2018-05-26T07:00:35.892Z,17.70
2018-05-26T07:03:03.442Z,17.80
2018-05-26T07:05:30.967Z,17.90
2018-05-26T07:07:58.497Z,18.00
2018-05-26T07:10:26.079Z,18.10
2018-05-26T07:12:53.663Z,18.20
2018-05-26T07:15:21.937Z,18.60
2018-05-26T07:17:49.494Z,18.50
2018-05-26T07:20:17.806Z,19.00
2018-05-26T07:22:45.330Z,19.00
2018-05-26T07:25:12.839Z,19.30
2018-05-26T07:27:40.384Z,19.40
2018-05-26T07:30:07.906Z,19.50
2018-05-26T07:32:35.430Z,19.70
2018-05-26T07:35:02.982Z,19.90
2018-05-26T07:37:30.499Z,20.00
2018-05-26T07:39:58.138Z,20.20
2018-05-26T07:42:25.694Z,20.30
2018-05-26T07:44:53.257Z,20.50
2018-05-26T07:47:20.859Z,20.70
2018-05-26T07:49:48.291Z,20.90
2018-05-26T07:52:15.832Z,21.10
2018-05-26T07:54:53.847Z,21.30
2018-05-26T07:57:21.373Z,21.30
2018-05-26T07:59:48.886Z,21.40
2018-05-26T08:02:16.428Z,21.40
2018-05-26T08:04:43.926Z,21.40
2018-05-26T08:07:11.444Z,21.50
2018-05-26T08:09:38.984Z,21.60
2018-05-26T08:12:07.268Z,21.90
2018-05-26T08:14:34.790Z,21.90
2018-05-26T08:17:02.480Z,22.00
2018-05-26T08:19:29.988Z,22.10
2018-05-26T08:21:57.525Z,22.10
2018-05-26T08:24:25.108Z,22.20
2018-05-26T08:26:52.629Z,22.30
2018-05-26T08:29:21.041Z,22.20
2018-05-26T08:31:48.599Z,22.20
2018-05-26T08:34:16.158Z,22.30
2018-05-26T08:36:43.659Z,22.40
2018-05-26T08:39:11.569Z,22.60
2018-05-26T08:41:39.165Z,22.70
2018-05-26T08:44:06.727Z,22.80
2018-05-26T08:46:34.245Z,22.90
2018-05-26T08:49:01.816Z,22.90
2018-05-26T08:51:29.346Z,22.90
2018-05-26T08:53:56.881Z,22.90
2018-05-26T08:56:25.265Z,23.10
2018-05-26T08:58:52.818Z,23.10
2018-05-26T09:01:21.095Z,23.40
2018-05-26T09:03:49.404Z,23.60
2018-05-26T09:06:16.984Z,23.50
2018-05-26T09:08:44.522Z,23.70
2018-05-26T09:11:12.042Z,23.70
2018-05-26T09:13:40.403Z,24.00
2018-05-26T09:16:07.932Z,23.90
2018-05-26T09:18:35.446Z,24.20
2018-05-26T09:21:03.013Z,24.30
2018-05-26T09:23:30.530Z,24.40
2018-05-26T09:25:58.031Z,24.40
2018-05-26T09:28:25.605Z,24.50
2018-05-26T09:30:53.128Z,24.40
2018-05-26T09:33:20.657Z,24.30
2018-05-26T09:35:48.235Z,24.40
2018-05-26T09:38:16.578Z,24.80
2018-05-26T09:40:44.089Z,24.80
2018-05-26T09:43:11.642Z,24.80
2018-05-26T09:45:44.115Z,25.00
2018-05-26T09:48:11.683Z,25.00
2018-05-26T09:50:39.194Z,25.20
2018-05-26T09:53:06.707Z,25.30
2018-05-26T09:55:34.244Z,25.30
2018-05-26T09:58:02.611Z,25.50
2018-05-26T10:00:30.135Z,25.40
2018-05-26T10:02:57.662Z,25.50
2018-05-26T10:05:25.208Z,25.50
2018-05-26T10:07:52.778Z,25.50
2018-05-26T10:10:20.330Z,25.40
2018-05-26T10:12:47.848Z,25.30
2018-05-26T10:15:15.365Z,25.30
2018-05-26T10:17:42.908Z,25.10
2018-05-26T10:20:10.411Z,25.10
2018-05-26T10:22:37.942Z,25.20
2018-05-26T10:25:06.014Z,25.20
2018-05-26T10:27:33.684Z,25.30
2018-05-26T10:30:01.238Z,25.30
2018-05-26T10:32:28.750Z,25.30
2018-05-26T10:34:56.318Z,25.30
2018-05-26T10:37:23.871Z,25.40
2018-05-26T10:39:51.391Z,25.50
2018-05-26T10:42:18.938Z,25.60
2018-05-26T10:44:46.461Z,25.70
2018-05-26T10:47:14.034Z,25.60
2018-05-26T10:49:41.545Z,25.60
2018-05-26T10:52:09.100Z,25.60
2018-05-26T10:54:36.620Z,25.70
2018-05-26T10:57:04.166Z,25.80
2018-05-26T10:59:31.686Z,25.90
2018-05-26T11:01:59.220Z,26.10
2018-05-26T11:04:26.778Z,26.20
2018-05-26T11:06:54.269Z,26.20
2018-05-26T11:09:22.560Z,26.10
2018-05-26T11:11:50.087Z,26.10
2018-05-26T11:14:18.377Z,26.00
2018-05-26T11:16:45.934Z,26.00
2018-05-26T11:19:13.442Z,25.90
2018-05-26T11:21:40.955Z,26.00
2018-05-26T11:24:09.304Z,26.00
2018-05-26T11:26:36.818Z,26.00
2018-05-26T11:29:04.359Z,26.20
2018-05-26T11:31:31.904Z,26.30
2018-05-26T11:34:13.956Z,26.30
2018-05-26T11:36:41.491Z,26.10
2018-05-26T11:39:09.016Z,26.10
2018-05-26T11:41:37.337Z,26.10
2018-05-26T11:44:04.868Z,26.10
2018-05-26T11:46:32.389Z,26.00
2018-05-26T11:48:59.939Z,26.00
2018-05-26T11:51:27.524Z,26.00
2018-05-26T11:53:55.836Z,26.20
2018-05-26T11:56:23.379Z,26.20
2018-05-26T11:58:50.888Z,26.30
2018-05-26T12:01:18.420Z,26.50
2018-05-26T12:03:45.960Z,26.50
2018-05-26T12:06:13.462Z,26.40
2018-05-26T12:08:40.992Z,26.40
2018-05-26T12:11:08.550Z,26.40
2018-05-26T12:13:36.108Z,26.40
2018-05-26T12:16:03.679Z,26.50
2018-05-26T12:18:31.196Z,26.50
2018-05-26T12:20:58.725Z,26.50
2018-05-26T12:23:26.259Z,26.40
2018-05-26T12:25:53.792Z,26.40
2018-05-26T12:28:21.329Z,26.60
2018-05-26T12:30:48.895Z,26.70
2018-05-26T12:33:16.444Z,26.90
2018-05-26T12:35:43.990Z,27.10
2018-05-26T12:38:11.561Z,27.30
2018-05-26T12:40:39.102Z,27.40
2018-05-26T12:43:07.413Z,27.50
2018-05-26T12:45:34.941Z,27.50
2018-05-26T12:48:02.502Z,27.50
2018-05-26T12:50:30.031Z,27.60
2018-05-26T12:52:57.880Z,27.60
2018-05-26T12:55:35.106Z,27.50
2018-05-26T12:58:02.641Z,27.40
2018-05-26T13:00:30.265Z,27.30
2018-05-26T13:02:57.824Z,27.10
2018-05-26T13:05:25.552Z,27.10
2018-05-26T13:07:53.087Z,27.20
2018-05-26T13:10:20.915Z,27.30
2018-05-26T13:12:48.447Z,27.40
2018-05-26T13:15:30.352Z,27.50
2018-05-26T13:17:57.863Z,27.60
2018-05-26T13:20:26.164Z,27.40
2018-05-26T13:22:53.725Z,27.40
2018-05-26T13:25:30.999Z,27.40
2018-05-26T13:27:58.579Z,27.40
2018-05-26T13:30:26.168Z,27.30
2018-05-26T13:32:53.676Z,27.30
2018-05-26T13:35:22.098Z,27.20
2018-05-26T13:37:49.669Z,27.10
2018-05-26T13:40:17.204Z,27.10
2018-05-26T13:42:44.748Z,27.00
2018-05-26T13:45:12.396Z,27.00
2018-05-26T13:47:39.963Z,27.20
2018-05-26T13:50:07.524Z,27.50
2018-05-26T13:52:35.070Z,27.80
2018-05-26T13:55:03.727Z,28.70
2018-05-26T13:57:31.290Z,28.60
2018-05-26T13:59:58.846Z,28.90
2018-05-26T14:02:26.385Z,28.70
2018-05-26T14:04:58.901Z,29.00
2018-05-26T14:07:27.211Z,29.10
2018-05-26T14:09:54.738Z,29.10
2018-05-26T14:12:22.281Z,29.10
2018-05-26T14:14:50.631Z,29.30
2018-05-26T14:17:18.223Z,29.30
2018-05-26T14:19:45.820Z,29.30
2018-05-26T14:22:13.327Z,29.20
2018-05-26T14:24:40.934Z,29.10
2018-05-26T14:27:08.459Z,29.20
2018-05-26T14:29:36.027Z,29.30
2018-05-26T14:32:04.332Z,29.30
2018-05-26T14:34:31.899Z,29.30
2018-05-26T14:36:59.446Z,29.20
2018-05-26T14:39:27.031Z,29.10
2018-05-26T14:41:54.533Z,29.20
2018-05-26T14:44:28.038Z,29.30
2018-05-26T14:46:55.538Z,29.30
2018-05-26T14:49:23.085Z,29.10
2018-05-26T14:51:50.696Z,29.00
2018-05-26T14:54:19.104Z,28.50
2018-05-26T14:56:46.646Z,28.50
2018-05-26T14:59:14.979Z,28.40
2018-05-26T15:01:42.520Z,28.40
2018-05-26T15:04:10.106Z,28.50
2018-05-26T15:06:37.662Z,28.50
2018-05-26T15:09:05.220Z,28.60
2018-05-26T15:11:32.791Z,28.70
2018-05-26T15:14:10.083Z,28.80
2018-05-26T15:16:37.620Z,28.90
2018-05-26T15:19:05.212Z,29.00
2018-05-26T15:21:32.753Z,28.80
2018-05-26T15:24:00.287Z,28.90
2018-05-26T15:26:27.851Z,28.90
2018-05-26T15:28:55.368Z,28.90
2018-05-26T15:31:22.939Z,28.90
2018-05-26T15:33:50.500Z,28.90
2018-05-26T15:36:18.000Z,29.00
2018-05-26T15:38:46.556Z,28.90
2018-05-26T15:41:14.110Z,28.90
2018-05-26T15:43:41.655Z,28.80
2018-05-26T15:46:09.176Z,28.90
2018-05-26T15:48:37.523Z,28.80
2018-05-26T15:51:05.042Z,28.80
2018-05-26T15:53:32.542Z,28.80
2018-05-26T15:56:00.111Z,28.80
2018-05-26T15:58:27.631Z,28.80
2018-05-26T16:00:55.155Z,28.80
2018-05-26T16:03:22.735Z,28.70
2018-05-26T16:05:50.270Z,28.40
2018-05-26T16:08:17.824Z,28.30
2018-05-26T16:10:45.360Z,28.10
2018-05-26T16:13:12.895Z,27.90
2018-05-26T16:15:40.412Z,27.80
2018-05-26T16:18:07.973Z,27.70
2018-05-26T16:20:35.552Z,27.60
2018-05-26T16:23:03.076Z,27.60
2018-05-26T16:25:30.613Z,27.50
2018-05-26T16:27:58.142Z,27.40
2018-05-26T16:30:25.694Z,27.40
2018-05-26T16:32:53.207Z,27.30
2018-05-26T16:35:21.528Z,27.30
2018-05-26T16:37:49.085Z,27.20
2018-05-26T16:40:16.602Z,27.30
2018-05-26T16:42:44.143Z,27.20
2018-05-26T16:45:12.459Z,27.10
2018-05-26T16:47:40.048Z,27.10
2018-05-26T16:50:07.561Z,27.20
2018-05-26T16:52:35.106Z,27.20
2018-05-26T16:55:03.470Z,27.10
2018-05-26T16:57:31.011Z,27.10
2018-05-26T16:59:58.562Z,27.00
2018-05-26T17:02:26.950Z,27.00
2018-05-26T17:04:54.451Z,26.90
2018-05-26T17:07:22.317Z,26.70
2018-05-26T17:09:49.886Z,26.60
2018-05-26T17:12:17.399Z,26.40
2018-05-26T17:14:44.908Z,26.20
2018-05-26T17:17:12.435Z,26.10
2018-05-26T17:19:40.717Z,25.90
2018-05-26T17:22:08.295Z,25.80
2018-05-26T17:24:45.527Z,25.70
2018-05-26T17:27:13.045Z,25.70
2018-05-26T17:29:40.589Z,25.80
2018-05-26T17:32:08.132Z,25.70
2018-05-26T17:34:35.634Z,25.70
2018-05-26T17:37:03.134Z,25.60
2018-05-26T17:39:31.418Z,25.60
2018-05-26T17:41:59.739Z,25.60
2018-05-26T17:44:27.255Z,25.60
2018-05-26T17:46:55.590Z,25.40
2018-05-26T17:49:23.115Z,25.40
2018-05-26T17:51:50.638Z,25.30
2018-05-26T17:54:18.946Z,25.10
2018-05-26T17:56:46.471Z,25.10
2018-05-26T17:59:13.996Z,25.00
2018-05-26T18:01:41.539Z,25.00
2018-05-26T18:04:09.097Z,25.00
2018-05-26T18:06:36.621Z,25.00
2018-05-26T18:09:04.192Z,25.00
2018-05-26T18:11:31.723Z,24.90
2018-05-26T18:14:05.108Z,24.80
2018-05-26T18:16:32.633Z,24.80
2018-05-26T18:19:00.146Z,24.60
2018-05-26T18:21:27.664Z,24.60
2018-05-26T18:23:55.189Z,24.50
2018-05-26T18:26:22.779Z,24.40
2018-05-26T18:28:50.331Z,24.40
2018-05-26T18:31:17.872Z,24.30
2018-05-26T18:33:45.387Z,24.20
2018-05-26T18:36:12.926Z,24.20
2018-05-26T18:38:40.459Z,24.20
2018-05-26T18:41:07.990Z,24.20
2018-05-26T18:43:35.522Z,24.20
2018-05-26T18:46:03.058Z,24.00
2018-05-26T18:48:30.587Z,24.00
2018-05-26T18:50:58.117Z,23.90
2018-05-26T18:53:25.680Z,23.80
2018-05-26T18:55:53.405Z,23.80
2018-05-26T18:58:20.912Z,23.70
2018-05-26T19:00:48.518Z,23.50
2018-05-26T19:03:16.014Z,23.20
2018-05-26T19:05:53.388Z,23.20
2018-05-26T19:08:20.903Z,23.20
2018-05-26T19:10:48.426Z,23.10
2018-05-26T19:13:16.204Z,23.10
2018-05-26T19:15:43.714Z,23.10
2018-05-26T19:18:12.014Z,23.00
2018-05-26T19:20:39.596Z,22.90
2018-05-26T19:23:07.109Z,23.00
2018-05-26T19:25:34.629Z,23.00
2018-05-26T19:28:02.184Z,23.00
2018-05-26T19:30:29.700Z,23.00
2018-05-26T19:32:57.222Z,23.00
2018-05-26T19:35:24.778Z,23.00
2018-05-26T19:37:52.340Z,22.90
2018-05-26T19:40:19.867Z,22.40
2018-05-26T19:42:47.473Z,21.40
2018-05-26T19:45:15.773Z,20.00
2018-05-26T19:47:43.295Z,20.00
2018-05-26T19:50:10.859Z,19.80
2018-05-26T19:52:38.363Z,19.20
2018-05-26T19:55:05.940Z,18.90
2018-05-26T19:57:33.452Z,18.80
2018-05-26T20:00:01.756Z,18.70
2018-05-26T20:02:30.097Z,18.70
2018-05-26T20:04:57.602Z,18.70
2018-05-26T20:07:25.144Z,18.80
2018-05-26T20:09:52.704Z,18.50
2018-05-26T20:12:20.229Z,18.40
2018-05-26T20:14:48.070Z,18.30
2018-05-26T20:17:15.652Z,18.20
2018-05-26T20:19:43.985Z,18.20
2018-05-26T20:22:11.504Z,18.20
2018-05-26T20:24:39.063Z,18.20
2018-05-26T20:27:06.566Z,18.10
2018-05-26T20:29:34.183Z,18.00
2018-05-26T20:32:01.734Z,18.00
2018-05-26T20:34:29.268Z,18.00
2018-05-26T20:36:56.772Z,17.90
2018-05-26T20:41:57.109Z,17.80
2018-05-26T20:44:24.774Z,17.70
2018-05-26T20:46:52.401Z,17.50
2018-05-26T20:49:21.340Z,17.30
2018-05-26T20:51:48.942Z,17.30
2018-05-26T20:54:17.523Z,17.30
2018-05-26T20:56:45.070Z,17.20
2018-05-26T20:59:12.655Z,17.20
2018-05-26T21:01:40.167Z,17.20
2018-05-26T21:04:07.701Z,17.20
2018-05-26T21:06:35.996Z,17.00
2018-05-26T21:09:03.505Z,17.00
2018-05-26T21:11:31.084Z,16.90
2018-05-26T21:13:58.605Z,16.90
2018-05-26T21:16:26.182Z,16.90
2018-05-26T21:18:54.459Z,17.00
2018-05-26T21:21:21.998Z,17.00
2018-05-26T21:23:49.529Z,17.10
2018-05-26T21:26:17.065Z,17.10
2018-05-26T21:28:44.586Z,17.00
2018-05-26T21:31:12.904Z,16.90
2018-05-26T21:33:40.424Z,16.90
2018-05-26T21:36:07.955Z,17.00
2018-05-26T21:38:35.486Z,17.00
2018-05-26T21:41:03.001Z,17.00
2018-05-26T21:43:30.531Z,16.90
2018-05-26T21:45:58.060Z,16.90
2018-05-26T21:48:25.584Z,17.00
2018-05-26T21:50:53.129Z,17.10
2018-05-26T21:53:21.468Z,17.10
2018-05-26T21:55:48.975Z,17.10
2018-05-26T21:58:16.507Z,17.10
2018-05-26T22:00:44.032Z,17.10
2018-05-26T22:03:11.536Z,17.10
2018-05-26T22:05:39.081Z,17.10
2018-05-26T22:08:06.628Z,17.10
2018-05-26T22:10:34.182Z,17.00
2018-05-26T22:13:01.701Z,16.90
2018-05-26T22:15:29.276Z,16.80
2018-05-26T22:17:56.795Z,16.70
2018-05-26T22:20:25.092Z,16.70
2018-05-26T22:22:52.604Z,16.70
2018-05-26T22:25:20.119Z,16.80
2018-05-26T22:27:47.699Z,16.80
2018-05-26T22:30:15.215Z,16.90
2018-05-26T22:32:42.740Z,16.90
2018-05-26T22:35:11.066Z,16.90
2018-05-26T22:37:38.598Z,16.80
2018-05-26T22:40:06.153Z,16.90
2018-05-26T22:42:34.460Z,16.90
2018-05-26T22:45:01.977Z,16.90
2018-05-26T22:47:30.254Z,16.80
2018-05-26T22:49:57.793Z,16.80
2018-05-26T22:52:25.351Z,16.80
2018-05-26T22:54:52.887Z,16.70
2018-05-26T22:57:20.401Z,16.70
2018-05-26T22:59:47.922Z,16.70
2018-05-26T23:02:15.474Z,16.70
2018-05-26T23:04:42.975Z,16.70
2018-05-26T23:07:10.536Z,16.60
2018-05-26T23:09:38.112Z,16.60
2018-05-26T23:12:05.652Z,16.60
2018-05-26T23:14:33.203Z,16.70
2018-05-26T23:17:00.770Z,16.70
2018-05-26T23:19:29.036Z,16.80
2018-05-26T23:21:56.592Z,16.80
2018-05-26T23:24:24.969Z,16.80
2018-05-26T23:26:53.269Z,16.80
2018-05-26T23:29:20.787Z,16.80
2018-05-26T23:31:49.088Z,16.80
2018-05-26T23:34:16.630Z,16.80
2018-05-26T23:36:44.131Z,16.80
2018-05-26T23:39:11.691Z,16.80
2018-05-26T23:41:39.259Z,16.70
2018-05-26T23:44:06.813Z,16.60
2018-05-26T23:46:34.372Z,16.60
2018-05-26T23:49:01.907Z,16.60
2018-05-26T23:51:29.463Z,16.50
2018-05-26T23:53:56.968Z,16.50
2018-05-26T23:56:24.494Z,16.50
2018-05-26T23:58:52.018Z,16.60
